Time;durP1;ratioP1;P1;durP2;ratioP2;P2;SDS_P1;SDS_P2;PMS_P1;PMS_P2;Temp;Humidity;BMP_temperature;BMP_pressure;BME280_temperature;BME280_humidity;BME280_pressure;Samples;Min_cycle;Max_cycle;Signal;HPM_P1;HPM_P2
2021/07/27 00:03:10;;;;;;;1999.90;999.90;;;;;;;22.74;67.94;100643.81;15736106;28;20105;-63
2021/07/27 00:10:44;;;;;;;1999.90;999.90;;;;;;;22.77;68.01;100636.47;15734966;28;20086;-63
2021/07/27 00:18:16;;;;;;;1999.90;999.90;;;;;;;22.58;68.19;100637.03;15716816;28;20113;-63
2021/07/27 00:25:50;;;;;;;1999.90;999.90;;;;;;;22.52;68.41;100633.03;15674026;28;20049;-63
2021/07/27 00:33:24;;;;;;;1999.90;999.90;;;;;;;22.40;69.41;100635.09;15637890;28;20044;-63
2021/07/27 00:40:58;;;;;;;1999.90;999.90;;;;;;;22.36;70.18;100630.66;15672611;28;20440;-63
2021/07/27 00:48:30;;;;;;;1999.90;999.90;;;;;;;22.41;70.31;100622.53;15671422;28;20063;-63
2021/07/27 00:56:05;;;;;;;1999.90;999.90;;;;;;;22.45;70.70;100622.50;15671294;28;20130;-63
2021/07/27 01:03:38;;;;;;;1999.90;999.90;;;;;;;22.36;71.23;100636.34;15671409;28;20114;-62
2021/07/27 01:11:22;;;;;;;1999.90;999.90;;;;;;;22.57;71.06;100629.72;15671346;28;20049;-62
2021/07/27 01:19:01;;;;;;;1999.90;999.90;;;;;;;22.54;71.35;100630.56;15671011;28;20064;-63
2021/07/27 01:42:24;;;;;;;1999.90;999.90;;;;;;;22.35;72.94;100634.75;15744260;28;20063;-62
2021/07/27 01:49:57;;;;;;;1999.90;999.90;;;;;;;22.27;73.60;100645.34;15725176;28;20051;-63
2021/07/27 01:57:31;;;;;;;1999.90;999.90;;;;;;;22.19;74.39;100633.19;15743403;28;20524;-63
2021/07/27 02:05:03;;;;;;;1999.90;999.90;;;;;;;22.48;72.84;100639.50;15724575;28;20045;-63
2021/07/27 02:12:49;;;;;;;1999.90;999.90;;;;;;;22.29;73.62;100645.72;15742886;28;20341;-63
2021/07/27 02:20:21;;;;;;;1999.90;999.90;;;;;;;22.40;73.89;100637.94;15742486;28;20055;-63
2021/07/27 02:27:55;;;;;;;1999.90;999.90;;;;;;;22.29;74.31;100627.88;15681948;28;20045;-63
2021/07/27 02:35:27;;;;;;;1999.90;999.90;;;;;;;22.45;73.39;100631.03;15645885;28;20624;-63
2021/07/27 02:43:03;;;;;;;1999.90;999.90;;;;;;;22.45;72.94;100628.19;15692922;23;20056;-66
2021/07/27 02:50:47;;;;;;;1999.90;999.90;;;;;;;22.32;73.12;100630.69;15732227;28;20043;-65
2021/07/27 02:58:29;;;;;;;1999.90;999.90;;;;;;;22.07;74.31;100633.66;15732088;28;20346;-66
2021/07/27 03:06:02;;;;;;;1999.90;999.90;;;;;;;21.93;74.98;100625.19;15748667;28;20055;-66
2021/07/27 03:13:36;;;;;;;1999.90;999.90;;;;;;;21.98;74.92;100621.09;15729404;28;20334;-65
2021/07/27 03:21:08;;;;;;;1999.90;999.90;;;;;;;21.89;75.09;100638.63;15726087;28;20110;-64
2021/07/27 03:28:42;;;;;;;1999.90;999.90;;;;;;;21.79;75.14;100636.63;15744692;28;20047;-65
2021/07/27 03:36:14;;;;;;;1999.90;999.90;;;;;;;21.46;76.51;100635.09;15726721;28;20044;-65
2021/07/27 03:43:48;;;;;;;1999.90;999.90;;;;;;;21.74;75.74;100654.88;15725987;28;20494;-65
2021/07/27 03:51:20;;;;;;;1999.90;999.90;;;;;;;21.84;75.06;100664.59;15725532;28;20101;-65
2021/07/27 03:58:54;;;;;;;1999.90;999.90;;;;;;;21.78;75.47;100654.84;15742415;28;20427;-65
2021/07/27 04:06:26;;;;;;;1999.90;999.90;;;;;;;21.63;75.65;100676.03;15726040;28;20390;-65
2021/07/27 04:14:01;;;;;;;1999.90;999.90;;;;;;;21.80;75.26;100692.19;15711371;28;20055;-66
2021/07/27 04:21:33;;;;;;;1999.90;999.90;;;;;;;21.83;75.45;100694.22;15737127;28;20512;-66
2021/07/27 04:29:07;;;;;;;1999.90;999.90;;;;;;;21.88;75.15;100697.47;15680412;28;20413;-65
2021/07/27 04:36:40;;;;;;;1999.90;999.90;;;;;;;22.10;74.46;100689.69;15645225;28;20420;-65
2021/07/27 04:44:13;;;;;;;1999.90;999.90;;;;;;;22.30;73.58;100698.53;15678105;28;20048;-66
2021/07/27 04:51:53;;;;;;;1999.90;999.90;;;;;;;22.54;72.86;100702.44;15680327;28;20048;-65
2021/07/27 04:59:42;;;;;;;1999.90;999.90;;;;;;;22.69;71.96;100701.13;15680923;28;20043;-65
2021/07/27 05:07:14;;;;;;;1999.90;999.90;;;;;;;22.91;71.28;100710.34;15684049;28;20072;-65
2021/07/27 05:14:48;;;;;;;1999.90;999.90;;;;;;;23.22;70.11;100721.91;15698068;28;20047;-64
2021/07/27 05:22:23;;;;;;;1999.90;999.90;;;;;;;23.49;68.47;100719.22;15691930;28;20048;-65
2021/07/27 05:29:56;;;;;;;1999.90;999.90;;;;;;;23.67;67.65;100725.59;15693889;28;20061;-66
2021/07/27 05:37:28;;;;;;;1999.90;999.90;;;;;;;24.16;66.25;100729.88;15694286;28;20551;-65
2021/07/27 05:45:02;;;;;;;1999.90;999.90;;;;;;;24.47;64.47;100738.50;15671787;28;20045;-65
2021/07/27 05:52:34;;;;;;;1999.90;999.90;;;;;;;24.63;63.86;100752.94;15671744;28;20067;-65
2021/07/27 06:00:09;;;;;;;1999.90;999.90;;;;;;;25.24;62.36;100734.94;15690225;28;20299;-65
2021/07/27 06:07:41;;;;;;;1999.90;999.90;;;;;;;25.23;61.82;100754.13;15673069;28;20049;-66
2021/07/27 06:15:14;;;;;;;1999.90;999.90;;;;;;;25.60;60.50;100749.41;15691285;28;20049;-66
2021/07/27 06:22:46;;;;;;;1999.90;999.90;;;;;;;25.79;58.94;100745.81;15689346;28;20090;-67
2021/07/27 06:30:20;;;;;;;1999.90;999.90;;;;;;;26.24;58.54;100748.19;15753672;28;20076;-66
2021/07/27 06:37:53;;;;;;;1999.90;999.90;;;;;;;26.51;56.08;100755.84;15750479;28;20041;-66
2021/07/27 06:45:27;;;;;;;1999.90;999.90;;;;;;;26.01;56.55;100762.53;15749359;28;20111;-66
2021/07/27 06:53:01;;;;;;;1999.90;999.90;;;;;;;26.85;54.62;100767.72;15749135;28;20045;-66
2021/07/27 07:00:39;;;;;;;1999.90;999.90;;;;;;;27.33;51.46;100771.94;15749467;28;20398;-65
2021/07/27 07:08:11;;;;;;;1999.90;999.90;;;;;;;27.45;49.77;100781.88;15731268;28;20054;-65
2021/07/27 07:15:44;;;;;;;;;;;;;;;28.15;51.55;100778.41;15749775;28;20056;-65
2021/07/27 07:23:16;;;;;;;1999.90;999.90;;;;;;;28.01;50.61;100784.50;15724461;28;19974;-66
2021/07/27 07:30:52;;;;;;;1999.90;999.90;;;;;;;29.36;50.47;100791.94;15666476;28;20103;-66
2021/07/27 07:38:25;;;;;;;1999.90;999.90;;;;;;;29.24;48.14;100789.91;15681951;28;20395;-64
2021/07/27 07:45:58;;;;;;;1999.90;999.90;;;;;;;28.49;49.06;100791.41;15683245;28;20391;-65
2021/07/27 07:53:34;;;;;;;1999.90;999.90;;;;;;;29.60;48.39;100789.56;15680521;28;20094;-65
2021/07/27 08:01:08;;;;;;;1999.90;999.90;;;;;;;29.07;46.31;100774.84;15680778;28;20425;-66
2021/07/27 08:08:42;;;;;;;1999.90;999.90;;;;;;;29.34;46.60;100774.38;15663258;28;20068;-66
2021/07/27 08:16:15;;;;;;;1999.90;999.90;;;;;;;29.52;45.42;100777.47;15663261;28;20056;-66
2021/07/27 08:23:48;;;;;;;1999.90;999.90;;;;;;;29.84;44.62;100770.63;15705736;28;20041;-65
2021/07/27 08:31:24;;;;;;;1999.90;999.90;;;;;;;30.22;42.75;100768.88;15723762;28;20497;-65
2021/07/27 08:39:02;;;;;;;;;;;;;;;30.42;41.91;100764.38;15707499;28;20055;-65
2021/07/27 08:46:37;;;;;;;1999.90;999.90;;;;;;;31.22;42.84;100778.16;15714154;22;19928;-64
2021/07/27 08:54:15;;;;;;;1999.90;999.90;;;;;;;31.81;40.99;100778.97;15718619;28;20485;-64
2021/07/27 09:01:53;;;;;;;1999.90;999.90;;;;;;;30.73;41.97;100778.03;15718080;28;20040;-64
2021/07/27 09:09:39;;;;;;;1999.90;999.90;;;;;;;31.29;39.60;100779.94;15734896;28;20394;-63
2021/07/27 09:17:15;;;;;;;1999.90;999.90;;;;;;;30.91;40.53;100781.03;15735419;28;20440;-64
2021/07/27 09:24:55;;;;;;;1999.90;999.90;;;;;;;31.70;39.72;100774.94;15735081;28;20041;-64
2021/07/27 09:32:31;;;;;;;1999.90;999.90;;;;;;;31.09;41.79;100785.28;15734008;28;20068;-62
2021/07/27 09:40:17;;;;;;;1999.90;999.90;;;;;;;31.56;36.46;100787.84;15733940;28;20358;-64
2021/07/27 09:48:04;;;;;;;1999.90;999.90;;;;;;;32.41;37.94;100778.38;15732229;28;20497;-63
2021/07/27 09:55:39;;;;;;;1999.90;999.90;;;;;;;33.34;36.06;100784.66;15721212;28;20040;-64
2021/07/27 10:03:31;;;;;;;1999.90;999.90;;;;;;;32.87;36.96;100786.16;15726453;28;20045;-63
2021/07/27 10:11:08;;;;;;;1999.90;999.90;;;;;;;32.63;36.09;100791.81;15709798;28;20048;-63
2021/07/27 10:18:41;;;;;;;1999.90;999.90;;;;;;;33.35;36.22;100784.22;15744058;28;20166;-63
2021/07/27 10:26:28;;;;;;;1999.90;999.90;;;;;;;34.31;34.00;100773.41;15662861;28;20084;-62
2021/07/27 10:34:09;;;;;;;1999.90;999.90;;;;;;;33.33;34.89;100777.25;15680687;28;20045;-62
2021/07/27 10:41:45;;;;;;;1999.90;999.90;;;;;;;33.83;32.94;100787.91;15680354;28;20362;-62
2021/07/27 10:49:22;;;;;;;1999.90;999.90;;;;;;;34.66;32.36;100785.13;15679615;28;20061;-63
2021/07/27 10:56:59;;;;;;;1999.90;999.90;;;;;;;33.50;34.07;100779.28;15661298;28;20053;-63
2021/07/27 11:04:33;;;;;;;1999.90;999.90;;;;;;;34.65;32.52;100779.84;15678106;28;20492;-64
2021/07/27 11:12:06;;;;;;;1999.90;999.90;;;;;;;33.38;34.53;100773.75;15678386;28;20041;-63
2021/07/27 11:19:44;;;;;;;1999.90;999.90;;;;;;;32.94;36.27;100775.06;15643145;28;20056;-63
2021/07/27 11:27:22;;;;;;;1999.90;999.90;;;;;;;34.60;32.15;100790.06;15652544;28;20053;-63
2021/07/27 11:34:59;;;;;;;1999.90;999.90;;;;;;;33.00;34.41;100766.50;15659220;28;20362;-63
2021/07/27 11:42:33;;;;;;;1999.90;999.90;;;;;;;32.72;33.93;100760.81;15676514;28;20048;-62
2021/07/27 11:50:08;;;;;;;1999.90;999.90;;;;;;;31.85;37.29;100758.59;15675278;28;20056;-62
2021/07/27 11:57:50;;;;;;;1999.90;999.90;;;;;;;34.24;33.64;100756.41;15675519;28;20044;-63
2021/07/27 12:05:24;;;;;;;1999.90;999.90;;;;;;;34.35;34.09;100765.31;15674976;28;20045;-63
2021/07/27 12:12:56;;;;;;;1999.90;999.90;;;;;;;32.03;36.12;100769.38;15674134;28;20111;-63
2021/07/27 12:20:30;;;;;;;1999.90;999.90;;;;;;;31.45;37.77;100755.78;15656889;28;20037;-62
2021/07/27 12:28:02;;;;;;;1999.90;999.90;;;;;;;30.83;36.56;100752.97;15655396;28;20123;-62
2021/07/27 12:35:35;;;;;;;1999.90;999.90;;;;;;;31.70;37.75;100758.41;15673894;28;20564;-63
2021/07/27 12:43:08;;;;;;;1999.90;999.90;;;;;;;32.45;35.99;100749.31;15673536;28;20037;-62
2021/07/27 12:50:41;;;;;;;1999.90;999.90;;;;;;;34.60;31.86;100754.44;15655103;28;20048;-63
2021/07/27 12:58:14;;;;;;;1999.90;999.90;;;;;;;35.23;30.62;100752.13;15655162;28;20049;-63
2021/07/27 13:05:48;;;;;;;1999.90;999.90;;;;;;;34.43;32.49;100754.97;15673210;28;20037;-62
2021/07/27 13:13:20;;;;;;;1999.90;999.90;;;;;;;36.52;28.67;100754.59;15655426;28;20055;-63
2021/07/27 13:20:54;;;;;;;1999.90;999.90;;;;;;;39.09;26.81;100745.53;15674892;28;20044;-62
2021/07/27 13:28:28;;;;;;;1999.90;999.90;;;;;;;34.49;31.40;100745.56;15737331;28;20074;-63
2021/07/27 13:36:02;;;;;;;1999.90;999.90;;;;;;;31.99;35.30;100739.84;15728766;28;20548;-62
2021/07/27 13:43:34;;;;;;;1999.90;999.90;;;;;;;32.51;36.11;100730.03;15728035;28;20067;-63
2021/07/27 13:51:08;;;;;;;1999.90;999.90;;;;;;;31.15;35.88;100729.41;15728789;28;20113;-63
2021/07/27 13:58:40;;;;;;;1999.90;999.90;;;;;;;31.90;35.52;100717.59;15711212;28;20040;-62
2021/07/27 14:06:14;;;;;;;1999.90;999.90;;;;;;;32.01;35.01;100706.38;15726520;28;20044;-62
2021/07/27 14:13:46;;;;;;;1999.90;999.90;;;;;;;31.18;36.74;100710.38;15743995;28;20052;-62
2021/07/27 14:21:20;;;;;;;1999.90;999.90;;;;;;;30.35;36.35;100712.06;15735854;28;20045;-63
2021/07/27 14:28:52;;;;;;;1999.90;999.90;;;;;;;30.52;38.01;100709.75;15646502;28;20049;-62
2021/07/27 14:36:26;;;;;;;1999.90;999.90;;;;;;;30.46;37.00;100706.69;15680586;28;20220;-62
2021/07/27 14:43:59;;;;;;;1999.90;999.90;;;;;;;30.72;36.84;100692.91;15703301;23;20051;-63
2021/07/27 14:51:33;;;;;;;1999.90;999.90;;;;;;;30.62;37.64;100691.25;15747855;28;20048;-66
2021/07/27 14:59:05;;;;;;;1999.90;999.90;;;;;;;30.45;37.58;100688.63;15730691;28;20042;-66
2021/07/27 15:06:40;;;;;;;1999.90;999.90;;;;;;;30.28;37.75;100692.19;15747615;28;20057;-66
2021/07/27 15:14:13;;;;;;;1999.90;999.90;;;;;;;30.44;36.63;100698.53;15747400;28;20056;-65
2021/07/27 15:21:46;;;;;;;1999.90;999.90;;;;;;;30.38;37.38;100688.09;15744812;28;20047;-66
2021/07/27 15:29:18;;;;;;;1999.90;999.90;;;;;;;30.42;36.83;100678.03;15728671;28;20537;-65
2021/07/27 15:36:53;;;;;;;1999.90;999.90;;;;;;;29.94;37.07;100681.53;15745473;28;20106;-63
2021/07/27 15:44:25;;;;;;;1999.90;999.90;;;;;;;29.83;36.89;100676.19;15745835;28;20079;-65
2021/07/27 15:51:59;;;;;;;1999.90;999.90;;;;;;;29.66;37.97;100666.94;15727300;28;20045;-66
2021/07/27 15:59:32;;;;;;;1999.90;999.90;;;;;;;29.19;38.51;100675.56;15744639;28;20048;-66
2021/07/27 16:07:06;;;;;;;1999.90;999.90;;;;;;;29.49;38.50;100674.09;15711302;28;20045;-65
2021/07/27 16:14:38;;;;;;;1999.90;999.90;;;;;;;30.01;38.26;100664.00;15745464;28;20047;-64
2021/07/27 16:22:12;;;;;;;1999.90;999.90;;;;;;;30.44;38.12;100649.59;15726478;28;20440;-64
2021/07/27 16:29:44;;;;;;;1999.90;999.90;;;;;;;30.15;36.84;100643.34;15726691;28;20497;-64
2021/07/27 16:37:22;;;;;;;1999.90;999.90;;;;;;;29.78;37.79;100642.25;15726181;28;20068;-65
2021/07/27 16:44:55;;;;;;;1999.90;999.90;;;;;;;29.78;37.21;100648.00;15745265;28;20087;-64
2021/07/27 16:53:27;;;;;;;1999.90;999.90;;;;;;;29.83;37.93;100642.47;15989652;27;20046;-65
2021/07/27 17:01:00;;;;;;;1999.90;999.90;;;;;;;29.63;38.48;100656.38;15926379;27;20055;-65
2021/07/27 17:08:34;;;;;;;1999.90;999.90;;;;;;;29.43;37.89;100645.13;15925016;27;20039;-65
2021/07/27 17:16:06;;;;;;;1999.90;999.90;;;;;;;29.21;38.49;100650.84;15922967;28;20039;-65
2021/07/27 17:23:40;;;;;;;1999.90;999.90;;;;;;;29.05;38.89;100645.22;15923134;27;20051;-64
2021/07/27 17:31:14;;;;;;;1999.90;999.90;;;;;;;28.97;40.22;100649.59;15923756;27;20052;-66
2021/07/27 17:38:48;;;;;;;1999.90;999.90;;;;;;;28.88;40.08;100640.88;15905923;28;20051;-66
2021/07/27 17:46:20;;;;;;;1999.90;999.90;;;;;;;28.55;40.17;100643.16;15923359;27;20047;-65
2021/07/27 17:53:53;;;;;;;1999.90;999.90;;;;;;;28.72;40.99;100644.66;15922615;27;20069;-65
2021/07/27 18:01:26;;;;;;;1999.90;999.90;;;;;;;28.08;42.13;100636.00;15899609;27;20046;-66
2021/07/27 18:08:59;;;;;;;1999.90;999.90;;;;;;;28.34;41.81;100644.66;15878900;28;20047;-66
2021/07/27 18:16:32;;;;;;;1999.90;999.90;;;;;;;28.31;42.49;100637.78;15877969;28;20576;-63
2021/07/27 18:24:06;;;;;;;1999.90;999.90;;;;;;;27.90;43.06;100636.50;15861069;28;20044;-64
2021/07/27 18:31:38;;;;;;;1999.90;999.90;;;;;;;28.16;43.88;100640.25;15879534;28;20047;-65
2021/07/27 18:39:12;;;;;;;1999.90;999.90;;;;;;;27.82;43.48;100640.03;15879046;28;20039;-65
2021/07/27 18:46:44;;;;;;;1999.90;999.90;;;;;;;27.45;44.43;100648.00;15878011;28;20044;-66
2021/07/27 18:54:18;;;;;;;1999.90;999.90;;;;;;;27.30;44.42;100649.63;15877219;28;20051;-64
2021/07/27 19:01:50;;;;;;;1999.90;999.90;;;;;;;27.11;44.39;100651.38;15876847;28;20043;-67
2021/07/27 19:09:24;;;;;;;1999.90;999.90;;;;;;;27.07;45.68;100649.84;15878440;28;20044;-65
2021/07/27 19:16:56;;;;;;;1999.90;999.90;;;;;;;26.72;44.54;100641.69;15876441;28;20366;-65
2021/07/27 19:24:29;;;;;;;;;;;;;;;26.78;46.73;100647.66;15875236;28;20143;-62
2021/07/27 19:32:02;;;;;;;1999.90;999.90;;;;;;;26.37;49.50;100651.94;15878015;28;19919;-62
2021/07/27 19:39:35;;;;;;;1999.90;999.90;;;;;;;26.18;48.39;100664.16;15874999;28;20044;-68
2021/07/27 19:47:15;;;;;;;1999.90;999.90;;;;;;;25.95;48.89;100662.22;15875099;28;20040;-65
2021/07/27 19:54:48;;;;;;;1999.90;999.90;;;;;;;25.94;47.90;100666.28;15875533;28;20123;-66
2021/07/27 20:02:20;;;;;;;1999.90;999.90;;;;;;;25.73;49.69;100667.53;15876798;28;20097;-66
2021/07/27 20:09:54;;;;;;;1999.90;999.90;;;;;;;25.56;49.11;100665.81;15875352;28;20405;-65
2021/07/27 20:17:26;;;;;;;1999.90;999.90;;;;;;;25.37;51.16;100675.94;15873644;28;20036;-65
2021/07/27 20:25:00;;;;;;;1999.90;999.90;;;;;;;25.20;50.27;100675.03;15873405;28;20143;-65
2021/07/27 20:32:33;;;;;;;1999.90;999.90;;;;;;;24.90;49.36;100680.81;15872236;28;20488;-64
2021/07/27 20:40:14;;;;;;;1999.90;999.90;;;;;;;24.94;48.95;100681.56;15855734;28;20070;-63
2021/07/27 20:47:47;;;;;;;1999.90;999.90;;;;;;;25.03;49.40;100687.56;15867539;28;20134;-64
2021/07/27 20:55:21;;;;;;;1999.90;999.90;;;;;;;24.98;50.09;100696.56;15864412;28;20450;-64
2021/07/27 21:02:53;;;;;;;1999.90;999.90;;;;;;;24.83;51.69;100684.59;15864935;28;20072;-65
2021/07/27 21:10:28;;;;;;;1999.90;999.90;;;;;;;24.52;52.14;100689.53;15864146;28;20044;-65
2021/07/27 21:18:01;;;;;;;1999.90;999.90;;;;;;;24.36;53.35;100704.41;15863677;28;20123;-65
2021/07/27 21:25:37;;;;;;;1999.90;999.90;;;;;;;24.36;52.70;100703.59;15844308;28;20444;-65
2021/07/27 21:33:09;;;;;;;1999.90;999.90;;;;;;;24.32;51.96;100709.38;15864515;28;20115;-65
2021/07/27 21:40:43;;;;;;;;;;;;;;;24.27;51.42;100706.94;15876197;28;20035;-65
2021/07/27 21:48:15;;;;;;;1999.90;999.90;;;;;;;24.38;53.01;100695.44;15875306;27;20007;-65
2021/07/27 21:55:49;;;;;;;1999.90;999.90;;;;;;;24.17;54.47;100696.50;15873523;28;20389;-65
2021/07/27 22:03:21;;;;;;;1999.90;999.90;;;;;;;24.01;54.71;100702.81;15874177;28;20047;-65
2021/07/27 22:10:55;;;;;;;1999.90;999.90;;;;;;;23.99;52.76;100705.28;15874111;28;20039;-65
2021/07/27 22:18:27;;;;;;;1999.90;999.90;;;;;;;24.20;53.72;100698.50;15871911;28;20044;-65
2021/07/27 22:26:00;;;;;;;1999.90;999.90;;;;;;;24.28;53.97;100696.34;15871549;28;20040;-64
2021/07/27 22:33:33;;;;;;;1999.90;999.90;;;;;;;24.15;55.10;100702.63;15871043;28;20051;-66
2021/07/27 22:41:07;;;;;;;1999.90;999.90;;;;;;;24.01;55.51;100691.41;15870342;28;20036;-66
2021/07/27 22:48:39;;;;;;;1999.90;999.90;;;;;;;23.92;54.69;100687.44;15871276;28;20777;-66
2021/07/27 22:56:12;;;;;;;1999.90;999.90;;;;;;;24.11;53.48;100698.22;15871400;28;20051;-65
2021/07/27 23:03:45;;;;;;;1999.90;999.90;;;;;;;24.05;54.18;100700.72;15863335;28;20040;-64
2021/07/27 23:11:18;;;;;;;1999.90;999.90;;;;;;;23.93;54.82;100689.88;15848832;28;20047;-64
2021/07/27 23:18:50;;;;;;;1999.90;999.90;;;;;;;23.78;55.09;100680.69;15871228;28;20514;-64
2021/07/27 23:26:37;;;;;;;1999.90;999.90;;;;;;;23.71;55.24;100683.63;15872385;28;20044;-64
2021/07/27 23:34:09;;;;;;;1999.90;999.90;;;;;;;23.51;56.27;100671.19;15868941;28;20031;-64
2021/07/27 23:41:43;;;;;;;1999.90;999.90;;;;;;;23.44;56.09;100662.72;15868376;28;20416;-65
2021/07/27 23:49:15;;;;;;;1999.90;999.90;;;;;;;23.33;56.74;100654.28;15869946;28;20424;-64
2021/07/27 23:56:49;;;;;;;1999.90;999.90;;;;;;;23.17;58.17;100652.00;15867981;28;20039;-65
